Brasie Corners, New York
Current Conditions -  °F | °C
As of 6:58 PM on Friday 24 Oct 2014 (Local Time) from KGTB Reporting Station
Clear Clear  
Wind Chill: 47°   Ceiling: Unl
Heat Index: 50°   Visibility: 10mi
Dew Point: 45°   Wind: 8mph
Humidity: 82%   Direction: 240°WSW
Pressure: 29.87"   Gusts: NA
Location:  44.3309°N, 75.4775°W
Report Text: KGTB 242258Z AUTO 24007KT 10SM CLR 10/07 A2987 RMK AO2 SLP118 T00990070
Loading
Personal Weather Stations






























Interactive Weather Map
Tropical Storm Tracking
New forecast layout! Learn more

10-Day Weather Forecast

Advertisements
Track Severe Weather on mobile